OIAH  Gachsaran  Airport

Gachsaran, Iran

Add Bookmark
ICAO OIAH
Type Airport
Status Operational
Latitude
30° 20' 15" N
30.337601
Longitude
50° 49' 40" E
50.827999
Local (DST + 5) UTC (GMT + 4)
Jul 30, 2015 04:36 Jul 30, 2015 12:06
Sunrise-Sunset Local UTC
Begin Civil Twilight 05:56 01:26
Sunrise 06:22 01:52
Sunset 08:03 15:33
End Civil Twilight 08:29 15:59
VFR
VFR
MVFR
MVFR
IFR
IFR
LIFR
LIFR
Unknown
Unavailable

Current Weather

METAR Observed VFR
OIAH 301100Z 13008KT CAVOK 44/M03 Q1004 Thu, Jul 30, 2015 @ 11:00 UTC
(1 Hour, 6 Minutes ago)
Visual Flight Rules
Wind Visibility Conditions
130° at 8 knots (15 kph) 10 km or more
  • No significant weather
Temperatures Readings Precipitation
Current Temp
44°C
111°F
Dewpoint
-3°C
27°F
Humidity 5%
Altimeter 29.65" Hg
Sea Level Pressure 1,004 mb
Field Elevation
738 m
2,421 ft
None Recorded

Additional weather within a 92.6km radius of OIAH

Map ICAO Location
OISY 79.6km E/NE (059°)
VFR
VFR
MVFR
MVFR
IFR
IFR
LIFR
LIFR
Unknown
Unavailable
-
-

CheckWX.com is intended as a tool to help pilots better visualize weather data. It is not intended as a substitute for an official weather briefing obtained from a Flight Service Station. CheckWX.com does not meet the FAA requirements for an official pre-flight weather briefing. Therefore, it's important that pilots still call and obtain an official FSS pre-flight weather briefing.

© 2007-2015 CheckWX.com
12:06:08 UTC